To NAV CANADA Home Page Login to a new session Search on AWWS site Feedback and Comments Disclaimer Vers la page française équivalente Tips FAQ What's new on the site To the Forecasts and Observations / NOTAM section To "File a Flight Plan" website Publications and other links Update of the User's profile FIC Telephone Numbers My Weather Data Folder Route Weather Data Regional Weather Data Local Weather Data To the Forecasts and Observations / NOTAM section
Request Generated 05/28/2015 at 03:36:30 UTC . Weather information available at that time is displayed.

METAR/TAF

OTTAWA/MACDONALD-CARTIER INTL/ON    

METAR CYOW 280300Z 20008KT 15SM BKN110 22/15 A2992 RMK AC5 SLP131
DENSITY ALT 1300FT=
METAR CYOW 280200Z 21010G17KT 15SM SCT110 BKN140 23/15 A2991 RMK
AC4AC2 SLP128 DENSITY ALT 1400FT=
METAR CYOW 280100Z 21009G15KT 15SM FEW060TCU FEW100 24/15 A2990 RMK
TCU1AC2 TCU TR SLP124 DENSITY ALT 1400FT=

TAF CYOW 280238Z 2803/2824 21010G20KT P6SM FEW060 BKN140
FM280500 24008KT P6SM -SHRA BKN020 OVC050
FM281600 29012KT P6SM BKN030
FM282100 32010KT P6SM SCT040
RMK NXT FCST BY 280600Z=
Your time UTC time
Weather data provided by Environment Canada and NAV CANADA